Weather at Butch Airport [CLOSED]

Public forecast

Using degrees Celsius for public forecast. Weather courtesy of forecast.io.

Closest aviation weather report (METAR) to Butch Airport

Closest report is Perth Jandakot Airport, 109.9 nm (203.6 km) NNE. Retrieved 2020/11/30 15:30 UTC (26 minutes ago):

YPJT 301530Z AUTO 17005KT 9999 // NCD 10/06 Q1021 RF000/0000

Closest aviation forecast (TAF) to Butch Airport

Closest forecast is Busselton Regional Airport, 16.6 nm (30.8 km) ENE. Retrieved 2020/11/30 12:00 UTC (4 hours ago):

TAF YBLN 301118Z 3012/0112 20008KT 9999 SCT050 FM010500 31012KT 9999 SCT050 FM010800 21012KT CAVOK